KHUA/HUA METAR and TAF weather

Enter ICAO airport designator
Station Type Date Time Source
KHUA METAR 2019/02/23 00:38 UTC NOAA

KHUA 230038Z AUTO 00000KT 10SM OVC009 13/12 A3015 RMK AO2 SLPNO


Station Type Date Time Source
KHUA Decoded METAR 2019/02/23 00:38 UTC NOAA

Station name not available
Feb 22, 2019 - 07:38 PM EST / 2019.02.23 0038 UTC
Wind: Calm:0
Visibility: 10 mile(s):0
Sky conditions: overcast
Temperature: 55 F (13 C)
Dew Point: 53 F (12 C)
Relative Humidity: 93%
Pressure (altimeter): 30.15 in. Hg (1020 hPa)
ob: KHUA 230038Z AUTO 00000KT 10SM OVC009 13/12 A3015 RMK AO2 SLPNO
cycle: 0

Station Type Date Time Source
KHUA TAF UTC NOAA

Error!


Example: see airport list